Clearfield, Utah
Current Conditions -  °F | °C
As of 7:58 AM on Friday 19 Dec 2014 (Local Time) from KHIF Reporting Station
Broken Clouds Broken Clouds  
Wind Chill: 23°   Ceiling: 9000
Heat Index: 31°   Visibility: 10mi
Dew Point: 23°   Wind: 8mph
Humidity: 72%   Direction: 130°SE
Pressure: 30.18"   Gusts: NA
Location:  41.11°N, 112.02°W
Report Text: KHIF 191458Z AUTO 13007KT 10SM BKN090 M01/M05 A3018 RMK AO2 SLP228 T10061050 53002
Loading
Personal Weather Stations






























Interactive Weather Map New forecast layout! Learn more

10-Day Weather Forecast

Advertisements
Track Severe Weather on mobile